Time;durP1;ratioP1;P1;durP2;ratioP2;P2;SDS_P1;SDS_P2;PMS_P1;PMS_P2;Temp;Humidity;BMP_temperature;BMP_pressure;BME280_temperature;BME280_humidity;BME280_pressure;Samples;Min_cycle;Max_cycle;Signal;HPM_P1;HPM_P2
2023/01/22 00:00:54;;;;;;;13.80;5.90;;;;;;;2.50;100.00;101961.52;108839;1257;61209;-90
2023/01/22 00:03:42;;;;;;;16.70;6.10;;;;;;;2.48;100.00;101962.33;108963;1256;74987;-90
2023/01/22 00:06:33;;;;;;;16.90;7.30;;;;;;;2.41;100.00;101963.02;108878;1256;70458;-90
2023/01/22 00:09:21;;;;;;;18.10;7.00;;;;;;;2.43;100.00;101968.49;108886;1257;74581;-90
2023/01/22 00:12:08;;;;;;;18.10;6.60;;;;;;;2.48;100.00;101972.79;108831;1257;62489;-89
2023/01/22 00:14:56;;;;;;;20.00;7.20;;;;;;;2.49;100.00;101975.34;108884;1256;61320;-90
2023/01/22 00:17:44;;;;;;;18.90;7.70;;;;;;;2.53;100.00;101979.46;108880;1257;74611;-91
2023/01/22 00:20:32;;;;;;;21.20;8.80;;;;;;;2.59;100.00;101984.16;108948;1256;67305;-90
2023/01/22 00:23:20;;;;;;;20.40;7.00;;;;;;;2.63;100.00;101984.60;108817;1257;75048;-88
2023/01/22 00:26:12;;;;;;;21.40;8.30;;;;;;;2.67;100.00;101985.55;108862;1256;63720;-92
2023/01/22 00:29:00;;;;;;;16.90;7.20;;;;;;;2.69;100.00;101983.98;108818;1257;61521;-90
2023/01/22 00:31:48;;;;;;;18.00;7.20;;;;;;;2.71;100.00;101990.35;108874;1258;72529;-90
2023/01/22 00:34:36;;;;;;;18.70;6.50;;;;;;;2.73;100.00;101995.55;108900;1257;70124;-90
2023/01/22 00:37:23;;;;;;;18.90;6.80;;;;;;;2.71;100.00;101996.86;108903;1257;74638;-89
2023/01/22 00:40:11;;;;;;;19.50;7.10;;;;;;;2.71;100.00;102002.98;108811;1257;61263;-91
2023/01/22 00:42:58;;;;;;;23.70;7.30;;;;;;;2.68;100.00;102004.18;108857;1257;62767;-90
2023/01/22 00:45:46;;;;;;;21.80;7.10;;;;;;;2.79;100.00;102001.45;108779;1257;72891;-89
2023/01/22 00:48:34;;;;;;;16.30;6.40;;;;;;;2.90;100.00;102005.98;108893;1257;68960;-89
2023/01/22 00:51:21;;;;;;;16.00;6.70;;;;;;;3.03;100.00;102006.86;108857;1257;74411;-90
2023/01/22 00:54:09;;;;;;;18.80;6.70;;;;;;;3.05;100.00;102007.84;108910;1257;62641;-90
2023/01/22 00:56:56;;;;;;;18.20;6.70;;;;;;;3.17;100.00;102008.27;108837;1257;62070;-90
2023/01/22 00:59:45;;;;;;;16.30;6.80;;;;;;;2.93;100.00;102009.12;108947;1255;74334;-89
2023/01/22 01:02:32;;;;;;;22.30;7.50;;;;;;;2.82;100.00;102010.16;109211;1254;70519;-90
2023/01/22 01:05:20;;;;;;;20.50;6.80;;;;;;;2.72;100.00;102019.25;109127;1254;74351;-92
2023/01/22 01:08:07;;;;;;;18.70;7.10;;;;;;;2.71;100.00;102018.98;109205;1253;63221;-89
2023/01/22 01:10:56;;;;;;;21.80;8.50;;;;;;;2.67;100.00;102017.16;109293;1253;59673;-90
2023/01/22 01:13:43;;;;;;;16.40;6.90;;;;;;;2.65;100.00;102020.14;108989;1254;75029;-89
2023/01/22 01:16:31;;;;;;;21.10;9.40;;;;;;;2.74;100.00;102023.35;109210;1254;70317;-91
2023/01/22 01:19:21;;;;;;;22.10;9.90;;;;;;;2.71;100.00;102025.67;109183;1254;73663;-91
2023/01/22 01:22:10;;;;;;;23.30;8.90;;;;;;;2.63;100.00;102031.27;109070;1253;62119;-89
2023/01/22 01:24:58;;;;;;;28.20;10.60;;;;;;;2.66;100.00;102028.90;109062;1253;62479;-89
2023/01/22 01:27:46;;;;;;;27.80;10.70;;;;;;;2.63;100.00;102029.44;109050;1254;74538;-91
2023/01/22 01:30:33;;;;;;;29.00;10.80;;;;;;;2.59;100.00;102033.59;109181;1254;70653;-89
2023/01/22 01:33:21;;;;;;;28.20;12.10;;;;;;;2.58;100.00;102036.91;108991;1254;70666;-89
2023/01/22 01:36:19;;;;;;;25.60;12.40;;;;;;;2.56;100.00;102035.80;109077;1253;61450;-89
2023/01/22 01:39:27;;;;;;;27.70;11.30;;;;;;;2.57;100.00;102037.21;109189;1253;61278;-90
2023/01/22 01:42:14;;;;;;;28.70;11.50;;;;;;;2.43;100.00;102040.64;109206;1253;73796;-89
2023/01/22 01:45:37;;;;;;;31.20;11.60;;;;;;;2.43;100.00;102037.90;109019;1253;69762;-89
2023/01/22 01:48:25;;;;;;;;;;;;;;;2.38;100.00;102044.23;108692;1261;74179;-90
2023/01/22 01:51:16;;;;;;;25.40;10.20;;;;;;;2.36;100.00;102050.64;108959;1254;62545;-89
2023/01/22 01:54:03;;;;;;;29.50;11.70;;;;;;;2.34;100.00;102056.95;108973;1253;62805;-89
2023/01/22 01:56:54;;;;;;;26.30;11.40;;;;;;;2.30;100.00;102058.95;109122;1254;74899;-90
2023/01/22 01:59:42;;;;;;;31.00;10.80;;;;;;;2.23;100.00;102063.34;109001;1253;69868;-90
2023/01/22 02:02:29;;;;;;;29.00;13.20;;;;;;;2.18;100.00;102063.47;109205;1254;74390;-90
2023/01/22 02:05:19;;;;;;;27.80;11.70;;;;;;;2.18;100.00;102066.54;109043;1254;62655;-90
2023/01/22 02:08:06;;;;;;;25.70;10.90;;;;;;;2.15;100.00;102067.33;109043;1253;62305;-90
2023/01/22 02:10:55;;;;;;;28.60;11.70;;;;;;;2.15;100.00;102074.14;109034;1254;74774;-89
2023/01/22 02:13:48;;;;;;;25.60;10.10;;;;;;;2.11;100.00;102069.46;109206;1253;69886;-91
2023/01/22 02:16:37;;;;;;;27.00;10.20;;;;;;;2.09;100.00;102066.42;108942;1253;74706;-90
2023/01/22 02:19:25;;;;;;;26.10;11.00;;;;;;;2.06;100.00;102067.37;109041;1256;60993;-89
2023/01/22 02:22:34;;;;;;;26.20;10.90;;;;;;;2.02;100.00;102064.74;109045;1253;60540;-91
2023/01/22 02:25:22;;;;;;;27.00;11.80;;;;;;;2.00;100.00;102068.34;109166;1257;74842;-91
2023/01/22 02:28:10;;;;;;;27.90;11.80;;;;;;;1.91;100.00;102060.32;109030;1253;68980;-91
2023/01/22 02:30:57;;;;;;;29.90;11.20;;;;;;;1.92;100.00;102067.60;109244;1253;75257;-91
2023/01/22 02:33:45;;;;;;;28.00;10.10;;;;;;;1.92;100.00;102067.80;109154;1253;59726;-89
2023/01/22 02:36:34;;;;;;;28.60;12.20;;;;;;;1.93;100.00;102066.54;109033;1253;60684;-91
2023/01/22 02:39:22;;;;;;;23.70;10.30;;;;;;;1.91;100.00;102062.80;109021;1254;75308;-90
2023/01/22 02:42:10;;;;;;;25.10;11.20;;;;;;;1.91;100.00;102065.41;109014;1253;71122;-90
2023/01/22 02:44:58;;;;;;;28.00;10.40;;;;;;;1.92;100.00;102066.82;109209;1253;74499;-90
2023/01/22 02:47:45;;;;;;;25.00;10.20;;;;;;;1.90;100.00;102062.05;109077;1254;61505;-90
2023/01/22 02:50:34;;;;;;;25.90;10.10;;;;;;;1.92;100.00;102062.77;109062;1254;61249;-89
2023/01/22 02:53:21;;;;;;;25.20;11.20;;;;;;;1.91;100.00;102069.11;109133;1254;76189;-91
2023/01/22 02:56:09;;;;;;;23.90;9.80;;;;;;;1.91;100.00;102067.30;109143;1255;70438;-92
2023/01/22 02:58:59;;;;;;;28.80;9.80;;;;;;;1.90;100.00;102070.05;109005;1253;74791;-90
2023/01/22 03:01:47;;;;;;;27.80;9.80;;;;;;;1.86;100.00;102077.25;109028;1252;63058;-90
2023/01/22 03:04:34;;;;;;;23.40;10.60;;;;;;;1.78;100.00;102075.73;109168;1253;61791;-90
2023/01/22 03:07:22;;;;;;;23.80;9.60;;;;;;;1.78;100.00;102081.46;109177;1256;75598;-90
2023/01/22 03:10:15;;;;;;;28.90;11.90;;;;;;;1.79;100.00;102084.79;109091;1252;69985;-91
2023/01/22 03:22:22;;;;;;;29.60;11.70;;;;;;;1.76;100.00;102092.73;109205;1252;73787;-90
2023/01/22 03:25:10;;;;;;;25.30;10.50;;;;;;;1.77;100.00;102094.22;109083;1253;69350;-89
2023/01/22 03:28:17;;;;;;;29.10;11.70;;;;;;;1.73;100.00;102096.80;109227;1252;75038;-90
2023/01/22 03:31:10;;;;;;;25.00;9.80;;;;;;;1.69;100.00;102101.16;109337;1253;62378;-90
2023/01/22 03:33:57;;;;;;;27.40;11.00;;;;;;;1.70;100.00;102106.08;109014;1256;62109;-90
2023/01/22 03:36:45;;;;;;;26.00;11.70;;;;;;;1.70;100.00;102104.30;109104;1252;74154;-89
2023/01/22 03:39:33;;;;;;;30.30;10.70;;;;;;;1.65;100.00;102104.75;109083;1253;68957;-89
2023/01/22 03:42:23;;;;;;;28.60;10.80;;;;;;;1.64;100.00;102108.96;109263;1253;74953;-90
2023/01/22 03:45:11;;;;;;;26.70;11.10;;;;;;;1.57;100.00;102116.30;109213;1253;60448;-91
2023/01/22 03:47:58;;;;;;;29.90;11.90;;;;;;;1.54;100.00;102118.59;109242;1252;63980;-90
2023/01/22 03:50:49;;;;;;;32.30;13.20;;;;;;;1.68;100.00;102120.96;109228;1252;72843;-90
2023/01/22 03:53:37;;;;;;;33.20;12.60;;;;;;;1.66;100.00;102120.61;109110;1251;69627;-89
2023/01/22 03:56:25;;;;;;;32.20;12.50;;;;;;;1.66;100.00;102114.13;109237;1253;73852;-90
2023/01/22 03:59:16;;;;;;;32.60;12.30;;;;;;;1.69;100.00;102119.71;109266;1252;63208;-91
2023/01/22 06:06:52;;;;;;;57.90;20.10;;;;;;;-0.52;100.00;102280.19;105656;1291;605401;-90
2023/01/22 06:09:40;;;;;;;80.30;25.80;;;;;;;-0.08;100.00;102285.06;108290;1268;62129;-90
2023/01/22 06:12:28;;;;;;;85.50;26.40;;;;;;;0.20;100.00;102289.02;107985;1266;60484;-91
2023/01/22 06:15:19;;;;;;;90.60;30.10;;;;;;;0.36;100.00;102293.55;108230;1267;73455;-90
2023/01/22 06:18:10;;;;;;;92.00;31.60;;;;;;;0.50;100.00;102295.81;108255;1267;69532;-90
2023/01/22 06:21:03;;;;;;;80.10;28.90;;;;;;;0.61;100.00;102298.20;108360;1263;181522;-90
2023/01/22 06:23:51;;;;;;;;;;;;;;;0.68;100.00;102303.17;108399;1265;62213;-89
2023/01/22 06:26:38;;;;;;;66.40;25.90;;;;;;;0.81;100.00;102306.05;108441;1265;60645;-91
2023/01/22 06:29:27;;;;;;;46.20;20.30;;;;;;;0.96;100.00;102309.92;108481;1263;74248;-91
2023/01/22 06:32:15;;;;;;;32.90;14.50;;;;;;;1.07;100.00;102308.15;108403;1263;70540;-92
2023/01/22 06:35:03;;;;;;;30.80;13.80;;;;;;;1.09;100.00;102306.53;108478;1265;72790;-92
2023/01/22 06:37:51;;;;;;;40.60;18.70;;;;;;;1.14;100.00;102309.00;108463;1265;60161;-90
2023/01/22 06:40:39;;;;;;;31.50;15.10;;;;;;;1.20;100.00;102312.63;108186;1265;59028;-89
2023/01/22 06:43:27;;;;;;;27.90;14.50;;;;;;;1.23;100.00;102315.39;108889;1256;73936;-91
2023/01/22 06:46:14;;;;;;;26.00;11.40;;;;;;;1.22;100.00;102322.63;108794;1259;69551;-91
2023/01/22 06:49:14;;;;;;;22.00;9.60;;;;;;;1.23;100.00;102324.88;108846;1256;73568;-90
2023/01/22 06:52:05;;;;;;;20.40;9.50;;;;;;;1.16;100.00;102323.34;108785;1257;58255;-90
2023/01/22 06:54:53;;;;;;;25.70;11.20;;;;;;;1.16;100.00;102324.02;108796;1256;61661;-90
2023/01/22 06:57:44;;;;;;;26.60;12.80;;;;;;;1.19;100.00;102332.20;108927;1257;72475;-90
2023/01/22 07:00:32;;;;;;;27.80;12.30;;;;;;;1.24;100.00;102336.42;108748;1256;70678;-89
2023/01/22 07:03:24;;;;;;;32.20;14.10;;;;;;;1.51;100.00;102335.45;108703;1257;74750;-89
2023/01/22 07:06:17;;;;;;;32.10;15.10;;;;;;;1.49;100.00;102341.88;108833;1259;59960;-91
2023/01/22 07:09:05;;;;;;;28.20;12.40;;;;;;;1.26;100.00;102342.18;108894;1257;61922;-90
2023/01/22 07:11:52;;;;;;;40.00;23.50;;;;;;;1.23;100.00;102341.71;108862;1257;75588;-90
2023/01/22 07:14:40;;;;;;;34.00;18.90;;;;;;;1.19;100.00;102337.73;108911;1257;69819;-90
2023/01/22 07:17:27;;;;;;;26.70;11.60;;;;;;;1.20;100.00;102339.59;108667;1257;73059;-90
2023/01/22 07:20:15;;;;;;;18.70;9.40;;;;;;;1.23;100.00;102341.44;108905;1257;60034;-91
2023/01/22 07:23:03;;;;;;;24.10;10.30;;;;;;;1.23;100.00;102344.46;108821;1256;61301;-90
2023/01/22 07:25:51;;;;;;;23.50;10.30;;;;;;;1.25;100.00;102340.48;108879;1259;74564;-90
2023/01/22 07:28:39;;;;;;;27.70;11.70;;;;;;;1.32;100.00;102339.16;108869;1257;69989;-90
2023/01/22 07:31:26;;;;;;;27.30;10.80;;;;;;;1.33;100.00;102338.70;109001;1259;74273;-90
2023/01/22 07:34:14;;;;;;;27.50;12.50;;;;;;;1.32;100.00;102343.08;108789;1257;63418;-89
2023/01/22 07:37:02;;;;;;;24.90;11.70;;;;;;;1.34;100.00;102340.38;108787;1257;61940;-89
2023/01/22 07:39:55;;;;;;;24.80;12.10;;;;;;;1.34;100.00;102349.54;108685;1257;73863;-89
2023/01/22 07:42:43;;;;;;;20.20;9.00;;;;;;;1.37;100.00;102347.77;108802;1256;71128;-89
2023/01/22 07:45:32;;;;;;;28.60;14.60;;;;;;;1.39;100.00;102354.30;108807;1256;71917;-90
2023/01/22 07:48:20;;;;;;;26.40;11.50;;;;;;;1.39;100.00;102355.63;108632;1257;60284;-90
2023/01/22 07:51:08;;;;;;;24.90;10.80;;;;;;;1.38;100.00;102359.28;108825;1256;61400;-90
2023/01/22 07:53:56;;;;;;;26.80;11.20;;;;;;;1.37;100.00;102365.35;108887;1256;75250;-90
2023/01/22 07:56:44;;;;;;;26.90;11.50;;;;;;;1.41;100.00;102367.45;108933;1256;70270;-90
2023/01/22 07:59:33;;;;;;;23.70;9.10;;;;;;;1.46;100.00;102365.90;108846;1259;74792;-90
2023/01/22 08:02:21;;;;;;;24.90;10.80;;;;;;;1.46;100.00;102373.27;108842;1256;60252;-90
2023/01/22 08:05:10;;;;;;;20.50;9.50;;;;;;;1.50;100.00;102377.46;108852;1256;61497;-90
2023/01/22 08:07:57;;;;;;;30.80;11.70;;;;;;;1.52;100.00;102374.45;108881;1256;74226;-90
2023/01/22 08:10:45;;;;;;;32.00;13.40;;;;;;;1.50;100.00;102375.06;108865;1256;69678;-89
2023/01/22 08:13:33;;;;;;;31.40;13.90;;;;;;;1.46;100.00;102377.83;108867;1256;74624;-90
2023/01/22 08:16:20;;;;;;;27.00;12.20;;;;;;;1.46;100.00;102378.34;108752;1259;63249;-90
2023/01/22 08:19:08;;;;;;;28.40;12.00;;;;;;;1.53;100.00;102381.34;108905;1257;60265;-90
2023/01/22 08:21:56;;;;;;;24.80;10.50;;;;;;;1.55;100.00;102382.96;108796;1260;75567;-89
2023/01/22 08:24:43;;;;;;;17.60;8.80;;;;;;;1.59;100.00;102385.16;108743;1256;71152;-91
2023/01/22 08:27:33;;;;;;;21.30;10.70;;;;;;;1.62;100.00;102377.59;108806;1257;74413;-90
2023/01/22 08:30:21;;;;;;;22.10;9.30;;;;;;;1.61;100.00;102385.27;108757;1259;59831;-91
2023/01/22 08:33:10;;;;;;;19.80;8.80;;;;;;;1.65;100.00;102388.91;108848;1259;60849;-90
2023/01/22 08:35:57;;;;;;;22.90;9.10;;;;;;;1.72;100.00;102392.13;108730;1257;73400;-92
2023/01/22 08:38:45;;;;;;;19.70;10.60;;;;;;;1.73;100.00;102391.63;108841;1256;68732;-90
2023/01/22 08:41:33;;;;;;;16.60;8.50;;;;;;;1.74;100.00;102390.55;108763;1256;74409;-90
2023/01/22 08:44:21;;;;;;;14.50;6.60;;;;;;;1.73;100.00;102393.31;108920;1259;62393;-91
2023/01/22 08:47:10;;;;;;;19.60;8.50;;;;;;;1.69;100.00;102387.56;108871;1257;61176;-92
2023/01/22 08:49:58;;;;;;;17.10;7.70;;;;;;;1.65;100.00;102382.80;108806;1258;75126;-91
2023/01/22 08:52:46;;;;;;;15.40;7.10;;;;;;;1.64;100.00;102387.24;108763;1264;71142;-90
2023/01/22 08:55:36;;;;;;;18.90;8.20;;;;;;;1.66;100.00;102389.23;108867;1256;73379;-91
2023/01/22 08:58:26;;;;;;;17.80;7.80;;;;;;;1.74;100.00;102384.92;108853;1258;59704;-92
2023/01/22 09:01:15;;;;;;;17.60;8.00;;;;;;;1.75;100.00;102385.36;108935;1256;62387;-92
2023/01/22 09:04:05;;;;;;;20.80;8.30;;;;;;;1.74;100.00;102379.50;108851;1257;74131;-90
2023/01/22 09:06:53;;;;;;;22.90;10.40;;;;;;;1.71;100.00;102382.30;108941;1255;69952;-90
2023/01/22 09:09:41;;;;;;;18.70;8.20;;;;;;;1.69;100.00;102380.92;109276;1255;72874;-90
2023/01/22 09:12:28;;;;;;;28.80;9.70;;;;;;;1.64;100.00;102381.64;109004;1255;61370;-92
2023/01/22 09:15:16;;;;;;;21.00;9.30;;;;;;;1.61;100.00;102388.30;109015;1253;62176;-91
2023/01/22 09:18:04;;;;;;;22.30;9.80;;;;;;;1.58;100.00;102389.45;109067;1253;75122;-90
2023/01/22 09:20:51;;;;;;;26.00;11.30;;;;;;;1.58;100.00;102391.53;109287;1255;68960;-90
2023/01/22 09:23:39;;;;;;;24.40;10.20;;;;;;;1.56;100.00;102393.94;108994;1254;73718;-91
2023/01/22 09:26:26;;;;;;;29.50;11.40;;;;;;;1.54;100.00;102392.76;109071;1256;59299;-91
2023/01/22 09:29:14;;;;;;;26.80;11.10;;;;;;;1.48;100.00;102397.49;109065;1254;58877;-90
2023/01/22 09:32:02;;;;;;;27.50;10.10;;;;;;;1.43;100.00;102398.58;109042;1253;74343;-90
2023/01/22 09:34:50;;;;;;;22.30;10.20;;;;;;;1.43;100.00;102399.82;109283;1254;69740;-90
2023/01/22 09:37:38;;;;;;;25.80;9.20;;;;;;;1.40;100.00;102399.90;109054;1253;73752;-91
2023/01/22 09:40:27;;;;;;;21.50;7.80;;;;;;;1.36;100.00;102404.65;109088;1253;60114;-91
2023/01/22 09:43:24;;;;;;;21.10;9.10;;;;;;;1.27;100.00;102403.48;109098;1253;62330;-90
2023/01/22 09:46:15;;;;;;;18.90;8.50;;;;;;;1.13;100.00;102406.27;109048;1253;74055;-91
2023/01/22 09:49:07;;;;;;;14.70;6.70;;;;;;;1.01;100.00;102404.37;109222;1253;68853;-91
2023/01/22 09:51:59;;;;;;;27.70;10.60;;;;;;;1.00;100.00;102405.89;108938;1256;74801;-91
2023/01/22 09:54:48;;;;;;;20.80;9.10;;;;;;;1.05;100.00;102402.79;108995;1255;62056;-91
2023/01/22 09:57:36;;;;;;;23.10;8.00;;;;;;;1.07;100.00;102407.60;109083;1253;60817;-91
2023/01/22 12:04:43;;;;;;;33.10;10.50;;;;;;;-0.90;100.00;102415.30;105684;1291;600381;-89
2023/01/22 12:07:40;;;;;;;40.70;14.20;;;;;;;-0.68;100.00;102422.45;108377;1267;60440;-89
2023/01/22 12:10:46;;;;;;;52.70;15.90;;;;;;;-0.46;100.00;102420.52;108282;1266;60590;-92
2023/01/22 12:13:49;;;;;;;54.00;17.20;;;;;;;-0.31;100.00;102421.84;108940;1256;74351;-91
2023/01/22 12:16:49;;;;;;;55.40;18.30;;;;;;;-0.18;100.00;102426.18;109155;1256;69498;-92
2023/01/22 12:20:06;;;;;;;33.50;13.90;;;;;;;-0.08;100.00;102426.97;109032;1254;73948;-90
2023/01/22 12:23:05;;;;;;;27.20;9.70;;;;;;;0.03;100.00;102431.58;109217;1254;61324;-92
2023/01/22 12:25:57;;;;;;;25.40;11.40;;;;;;;0.08;100.00;102431.77;109013;1254;62602;-90
2023/01/22 12:29:09;;;;;;;25.80;8.60;;;;;;;0.17;100.00;102428.96;108991;1254;74979;-92
2023/01/22 12:32:11;;;;;;;24.80;9.50;;;;;;;0.32;100.00;102432.20;109189;1254;70740;-91
2023/01/22 12:35:04;;;;;;;17.30;7.30;;;;;;;0.31;100.00;102433.02;109147;1254;74065;-91
2023/01/22 12:37:56;;;;;;;19.90;8.30;;;;;;;0.28;100.00;102431.96;109080;1254;62741;-90
2023/01/22 12:41:22;;;;;;;23.90;9.60;;;;;;;0.27;100.00;102432.22;109000;1253;62542;-91
2023/01/22 12:44:23;;;;;;;22.90;9.50;;;;;;;0.35;100.00;102435.88;108994;1254;75269;-91
2023/01/22 12:47:18;;;;;;;24.90;8.60;;;;;;;0.42;100.00;102430.11;109079;1254;69602;-91
2023/01/22 12:50:24;;;;;;;21.70;9.60;;;;;;;0.46;100.00;102435.48;109023;1254;73426;-91
2023/01/22 12:53:22;;;;;;;18.80;7.50;;;;;;;0.41;100.00;102435.34;109142;1254;62047;-91
2023/01/22 12:56:09;;;;;;;25.50;9.20;;;;;;;0.41;100.00;102437.33;109155;1254;62072;-91
2023/01/22 12:58:57;;;;;;;19.70;9.20;;;;;;;0.41;100.00;102438.79;109170;1253;75261;-91
2023/01/22 13:01:45;;;;;;;22.70;9.80;;;;;;;0.44;100.00;102443.87;109151;1254;69483;-92
2023/01/22 13:04:32;;;;;;;25.30;10.20;;;;;;;0.41;100.00;102438.92;109004;1254;74578;-90
2023/01/22 13:07:35;;;;;;;23.50;9.90;;;;;;;0.42;100.00;102444.95;108982;1253;62201;-90
2023/01/22 13:10:31;;;;;;;20.50;8.10;;;;;;;0.43;100.00;102444.66;109338;1254;61679;-92
2023/01/22 13:13:38;;;;;;;26.80;9.00;;;;;;;0.41;100.00;102440.03;109052;1253;75511;-90
2023/01/22 13:16:34;;;;;;;24.60;9.80;;;;;;;0.44;100.00;102440.52;109192;1254;71056;-91
2023/01/22 13:19:24;;;;;;;25.70;9.50;;;;;;;0.37;100.00;102439.22;109086;1254;74944;-91
2023/01/22 13:22:14;;;;;;;27.50;9.60;;;;;;;0.32;100.00;102441.05;108953;1254;60551;-91
2023/01/22 13:25:02;;;;;;;20.90;8.40;;;;;;;0.33;100.00;102440.59;109007;1254;62413;-91
2023/01/22 13:27:49;;;;;;;21.80;9.40;;;;;;;0.33;100.00;102442.30;109032;1254;74790;-91
2023/01/22 13:30:37;;;;;;;23.30;9.00;;;;;;;0.31;100.00;102447.38;109169;1253;69824;-91
2023/01/22 13:33:25;;;;;;;21.40;7.60;;;;;;;0.31;100.00;102446.15;109111;1256;73389;-91
2023/01/22 13:36:13;;;;;;;24.70;8.50;;;;;;;0.31;100.00;102445.55;109126;1254;62945;-92
2023/01/22 13:39:01;;;;;;;17.60;7.30;;;;;;;0.37;100.00;102445.43;109179;1253;61510;-90
2023/01/22 13:41:54;;;;;;;22.90;8.70;;;;;;;0.40;100.00;102448.16;109352;1253;73609;-92
2023/01/22 13:44:47;;;;;;;21.10;8.30;;;;;;;0.41;100.00;102451.70;109163;1254;69242;-92
2023/01/22 13:47:35;;;;;;;20.70;8.50;;;;;;;0.37;100.00;102459.30;109218;1253;73412;-90
2023/01/22 13:50:25;;;;;;;21.70;8.90;;;;;;;0.33;100.00;102461.30;109034;1254;61027;-91
2023/01/22 13:53:31;;;;;;;20.60;8.10;;;;;;;0.29;100.00;102464.13;109137;1254;61575;-90
2023/01/22 13:56:20;;;;;;;23.20;8.60;;;;;;;0.29;100.00;102466.25;109132;1253;75181;-90
2023/01/22 13:59:16;;;;;;;23.90;7.60;;;;;;;0.29;100.00;102470.92;109401;1253;71052;-91
2023/01/22 14:02:22;;;;;;;17.00;6.80;;;;;;;0.23;100.00;102469.21;109195;1253;74461;-91
2023/01/22 14:05:21;;;;;;;16.90;7.20;;;;;;;0.17;100.00;102472.48;109141;1254;62504;-90
2023/01/22 14:08:11;;;;;;;24.50;9.20;;;;;;;0.16;100.00;102472.98;109117;1253;62396;-90
2023/01/22 14:10:59;;;;;;;25.80;9.20;;;;;;;0.18;100.00;102470.14;109139;1254;74808;-90
2023/01/22 14:13:50;;;;;;;22.00;8.70;;;;;;;0.19;100.00;102471.42;108974;1254;70837;-89
2023/01/22 14:16:39;;;;;;;23.40;8.60;;;;;;;0.22;100.00;102470.05;109064;1254;73656;-92
2023/01/22 14:19:27;;;;;;;21.10;8.40;;;;;;;0.23;100.00;102469.42;109224;1254;60595;-89
2023/01/22 14:22:15;;;;;;;19.30;7.50;;;;;;;0.22;100.00;102472.40;109041;1254;62412;-90
2023/01/22 14:25:03;;;;;;;23.50;8.60;;;;;;;0.22;100.00;102472.88;109047;1254;73767;-91
2023/01/22 14:27:51;;;;;;;20.20;7.40;;;;;;;0.28;100.00;102474.05;109075;1254;70946;-92
2023/01/22 14:30:38;;;;;;;18.90;8.10;;;;;;;0.29;100.00;102475.02;109245;1254;74858;-91
2023/01/22 14:33:30;;;;;;;22.90;8.90;;;;;;;0.32;100.00;102476.86;109105;1254;63288;-91
2023/01/22 14:36:19;;;;;;;19.20;7.90;;;;;;;0.33;100.00;102477.46;108937;1254;60706;-91
2023/01/22 14:39:06;;;;;;;21.20;7.90;;;;;;;0.35;100.00;102476.92;109078;1253;75035;-91
2023/01/22 14:41:54;;;;;;;22.00;8.00;;;;;;;0.32;100.00;102477.73;109164;1254;69979;-90
2023/01/22 14:44:42;;;;;;;23.00;7.90;;;;;;;0.30;100.00;102474.40;109084;1254;73120;-91
2023/01/22 14:47:29;;;;;;;17.00;7.30;;;;;;;0.30;100.00;102476.52;109082;1254;61393;-90
2023/01/22 14:50:18;;;;;;;18.10;7.00;;;;;;;0.27;100.00;102475.41;109066;1254;61295;-91
2023/01/22 14:53:06;;;;;;;20.50;8.50;;;;;;;0.29;100.00;102474.48;109051;1253;75040;-91
2023/01/22 14:55:54;;;;;;;18.20;7.60;;;;;;;0.31;100.00;102475.40;108944;1254;70003;-92
2023/01/22 14:58:41;;;;;;;20.70;7.30;;;;;;;0.32;100.00;102477.20;108911;1254;74307;-90
2023/01/22 15:01:29;;;;;;;22.40;8.30;;;;;;;0.38;100.00;102481.45;109139;1253;63691;-91
2023/01/22 15:04:17;;;;;;;19.20;7.70;;;;;;;0.36;100.00;102482.65;109052;1254;60793;-91
2023/01/22 15:07:05;;;;;;;24.30;8.60;;;;;;;0.33;100.00;102487.21;109262;1254;74261;-90
2023/01/22 15:09:53;;;;;;;23.70;8.90;;;;;;;0.31;100.00;102490.79;109047;1254;68873;-91
2023/01/22 15:12:44;;;;;;;20.70;7.40;;;;;;;0.30;100.00;102492.51;108962;1254;74535;-92
2023/01/22 15:15:32;;;;;;;19.90;6.10;;;;;;;0.29;100.00;102498.75;109203;1254;61445;-91
2023/01/22 15:18:20;;;;;;;20.80;6.90;;;;;;;0.28;100.00;102497.20;109149;1254;61091;-91
2023/01/22 15:21:08;;;;;;;20.70;7.70;;;;;;;0.30;100.00;102502.33;109104;1253;75671;-91
2023/01/22 15:23:56;;;;;;;23.60;9.30;;;;;;;0.32;100.00;102499.52;109047;1254;71068;-91
2023/01/22 15:26:43;;;;;;;18.50;6.90;;;;;;;0.31;100.00;102497.94;108924;1254;73312;-92
2023/01/22 15:29:31;;;;;;;17.00;6.80;;;;;;;0.31;100.00;102504.55;109130;1254;61929;-91
2023/01/22 15:32:19;;;;;;;20.20;7.20;;;;;;;0.34;100.00;102501.00;109056;1255;61100;-91
2023/01/22 15:35:07;;;;;;;18.10;7.60;;;;;;;0.36;100.00;102497.98;109107;1254;74189;-90
2023/01/22 15:37:55;;;;;;;18.30;7.70;;;;;;;0.33;100.00;102499.69;109011;1254;70414;-90
2023/01/22 15:40:42;;;;;;;22.60;9.00;;;;;;;0.35;100.00;102498.64;108907;1254;74561;-90
2023/01/22 15:43:30;;;;;;;20.60;7.40;;;;;;;0.38;100.00;102501.18;109124;1254;59696;-91
2023/01/22 15:46:19;;;;;;;20.50;8.30;;;;;;;0.40;100.00;102501.06;108995;1254;62706;-90
2023/01/22 15:49:07;;;;;;;17.50;6.70;;;;;;;0.41;100.00;102501.15;109119;1253;75327;-92
2023/01/22 15:51:58;;;;;;;18.40;7.40;;;;;;;0.42;100.00;102503.76;109061;1254;70647;-90
2023/01/22 15:54:46;;;;;;;19.80;6.90;;;;;;;0.43;100.00;102506.55;108983;1254;75080;-90
2023/01/22 15:57:35;;;;;;;18.30;7.10;;;;;;;0.43;100.00;102506.85;109138;1253;60660;-90
2023/01/22 16:00:26;;;;;;;15.50;6.40;;;;;;;0.45;100.00;102503.66;109080;1254;59014;-91
2023/01/22 18:07:09;;;;;;;28.70;9.10;;;;;;;-1.56;100.00;102594.73;105340;1290;600892;-88
2023/01/22 18:09:57;;;;;;;42.70;13.50;;;;;;;-1.30;100.00;102597.84;108076;1267;63204;-90
2023/01/22 18:12:44;;;;;;;37.50;12.10;;;;;;;-1.07;100.00;102597.86;107942;1269;61287;-89
2023/01/22 18:15:33;;;;;;;37.90;12.20;;;;;;;-0.81;100.00;102594.45;108064;1266;74133;-89
2023/01/22 18:18:21;;;;;;;26.70;11.30;;;;;;;-0.59;100.00;102602.46;108044;1264;70734;-89
2023/01/22 18:21:15;;;;;;;17.60;7.30;;;;;;;-0.35;100.00;102607.61;108806;1253;155245;-88
2023/01/22 18:24:04;;;;;;;21.60;6.80;;;;;;;-0.21;100.00;102610.44;108965;1251;62075;-90
2023/01/22 18:26:53;;;;;;;13.50;5.40;;;;;;;-0.04;100.00;102605.33;109047;1250;63867;-89
2023/01/22 18:29:41;;;;;;;17.00;6.00;;;;;;;0.04;100.00;102608.68;109010;1251;72849;-89
2023/01/22 18:32:29;;;;;;;16.70;6.80;;;;;;;0.13;100.00;102607.05;108892;1251;72867;-88
2023/01/22 18:35:17;;;;;;;14.80;5.70;;;;;;;0.24;100.00;102603.03;109086;1251;75002;-92
2023/01/22 18:38:05;;;;;;;20.50;6.40;;;;;;;0.35;100.00;102600.91;109273;1251;60029;-90
2023/01/22 18:40:53;;;;;;;21.70;6.60;;;;;;;0.45;100.00;102603.33;109330;1251;59411;-90
2023/01/22 18:43:41;;;;;;;17.40;6.40;;;;;;;0.47;100.00;102603.41;109259;1250;75337;-91
2023/01/22 18:46:31;;;;;;;24.10;7.40;;;;;;;0.50;100.00;102599.68;109325;1250;70946;-89
2023/01/22 18:49:21;;;;;;;21.60;6.70;;;;;;;0.49;100.00;102602.07;109230;1251;74482;-92
2023/01/22 18:52:09;;;;;;;17.60;6.70;;;;;;;0.54;100.00;102600.81;109356;1251;63040;-91
2023/01/22 18:54:57;;;;;;;16.00;6.30;;;;;;;0.61;100.00;102597.75;109215;1252;60559;-91
2023/01/22 18:58:02;;;;;;;22.40;7.00;;;;;;;0.61;100.00;102601.33;109223;1253;74302;-91
2023/01/22 19:00:54;;;;;;;18.80;7.90;;;;;;;0.56;100.00;102602.20;109331;1251;69335;-90
2023/01/22 19:03:43;;;;;;;21.20;7.50;;;;;;;0.52;100.00;102603.86;109324;1251;74261;-91
2023/01/22 19:06:35;;;;;;;19.60;7.10;;;;;;;0.52;100.00;102605.51;109325;1251;61142;-90
2023/01/22 19:09:25;;;;;;;29.20;7.90;;;;;;;0.49;100.00;102607.33;109281;1251;60169;-90
2023/01/22 19:12:17;;;;;;;23.40;9.20;;;;;;;0.47;100.00;102607.98;109365;1251;73957;-89